createdAt,value
2022-08-21T00:00:43.644Z,21.10
2022-08-21T00:03:33.215Z,20.05
2022-08-21T00:06:07.023Z,18.42
2022-08-21T00:08:51.478Z,19.73
2022-08-21T00:11:28.013Z,23.45
2022-08-21T00:14:07.580Z,23.35
2022-08-21T00:16:48.007Z,25.67
2022-08-21T00:19:26.562Z,27.75
2022-08-21T00:22:09.960Z,23.50
2022-08-21T00:24:50.869Z,22.38
2022-08-21T00:27:30.733Z,22.92
2022-08-21T00:30:09.543Z,22.20
2022-08-21T00:32:42.855Z,21.27
2022-08-21T00:35:25.489Z,24.45
2022-08-21T00:38:02.875Z,20.52
2022-08-21T00:40:42.882Z,23.02
2022-08-21T00:43:21.939Z,24.77
2022-08-21T00:46:05.661Z,26.85
2022-08-21T00:48:46.570Z,26.20
2022-08-21T00:51:29.438Z,25.23
2022-08-21T00:54:06.736Z,25.48
2022-08-21T00:56:56.852Z,27.33
2022-08-21T00:59:45.368Z,26.27
2022-08-21T01:02:23.186Z,24.38
2022-08-21T01:04:55.230Z,24.52
2022-08-21T01:07:35.620Z,27.10
2022-08-21T01:10:18.798Z,24.05
2022-08-21T01:12:56.251Z,27.95
2022-08-21T01:15:33.435Z,24.75
2022-08-21T01:18:22.218Z,23.58
2022-08-21T01:21:17.731Z,22.40
2022-08-21T01:24:03.252Z,19.30
2022-08-21T01:26:38.775Z,18.73
2022-08-21T01:29:42.432Z,19.25
2022-08-21T01:32:24.409Z,19.92
2022-08-21T01:34:58.683Z,18.58
2022-08-21T01:37:25.580Z,22.10
2022-08-21T01:40:01.353Z,24.17
2022-08-21T01:42:39.771Z,29.63
2022-08-21T01:45:24.071Z,30.73
2022-08-21T01:48:07.969Z,29.40
2022-08-21T01:53:12.448Z,34.80
2022-08-21T01:55:50.278Z,44.10
2022-08-21T01:58:29.214Z,44.15
2022-08-21T02:01:11.614Z,42.58
2022-08-21T02:03:54.626Z,41.13
2022-08-21T02:06:26.573Z,41.20
2022-08-21T02:09:05.550Z,46.15
2022-08-21T02:11:48.992Z,45.80
2022-08-21T02:14:28.646Z,38.42
2022-08-21T02:17:12.498Z,43.75
2022-08-21T02:19:54.115Z,43.30
2022-08-21T02:22:32.851Z,40.00
2022-08-21T02:25:16.549Z,41.28
2022-08-21T02:28:01.918Z,37.42
2022-08-21T02:30:40.044Z,33.10
2022-08-21T02:33:21.917Z,36.95
2022-08-21T02:35:58.636Z,36.85
2022-08-21T02:38:45.760Z,33.47
2022-08-21T02:41:22.312Z,36.30
2022-08-21T02:44:00.586Z,32.42
2022-08-21T02:46:39.446Z,36.05
2022-08-21T02:49:20.443Z,35.05
2022-08-21T02:52:01.865Z,32.15
2022-08-21T02:54:36.688Z,32.20
2022-08-21T02:57:17.081Z,33.83
2022-08-21T02:59:56.869Z,34.65
2022-08-21T03:02:46.164Z,34.20
2022-08-21T03:05:24.603Z,37.72
2022-08-21T03:08:03.471Z,36.65
2022-08-21T03:10:44.246Z,37.72
2022-08-21T03:13:22.351Z,41.83
2022-08-21T03:16:02.696Z,43.50
2022-08-21T03:18:37.955Z,41.92
2022-08-21T03:21:19.607Z,39.67
2022-08-21T03:23:55.297Z,39.58
2022-08-21T03:26:36.435Z,39.25
2022-08-21T03:29:20.975Z,39.67
2022-08-21T03:31:51.551Z,35.60
2022-08-21T03:34:27.771Z,41.85
2022-08-21T03:37:08.775Z,45.83
2022-08-21T03:39:52.782Z,43.30
2022-08-21T03:42:27.960Z,38.78
2022-08-21T03:45:09.577Z,36.08
2022-08-21T03:48:01.422Z,32.85
2022-08-21T03:50:43.074Z,35.17
2022-08-21T03:53:24.131Z,33.38
2022-08-21T03:55:59.476Z,34.70
2022-08-21T03:58:34.829Z,36.80
2022-08-21T04:01:12.506Z,38.47
2022-08-21T04:03:48.454Z,37.17
2022-08-21T04:06:34.551Z,34.80
2022-08-21T04:09:10.818Z,39.65
2022-08-21T04:11:50.916Z,37.28
2022-08-21T04:14:29.952Z,39.00
2022-08-21T04:17:18.894Z,44.88
2022-08-21T04:20:03.082Z,43.75
2022-08-21T04:22:49.089Z,41.90
2022-08-21T04:25:27.611Z,42.05
2022-08-21T04:28:06.587Z,41.17
2022-08-21T04:30:45.044Z,42.97
2022-08-21T04:33:19.788Z,44.28
2022-08-21T04:35:58.030Z,42.55
2022-08-21T04:38:44.660Z,37.13
2022-08-21T04:41:28.048Z,34.72
2022-08-21T04:44:00.645Z,31.80
2022-08-21T04:46:39.452Z,30.60
2022-08-21T04:49:23.136Z,32.90
2022-08-21T04:51:59.596Z,32.17
2022-08-21T04:54:37.909Z,34.13
2022-08-21T04:57:19.856Z,31.55
2022-08-21T04:59:57.996Z,36.58
2022-08-21T05:02:39.428Z,32.10
2022-08-21T05:05:18.308Z,39.75
2022-08-21T05:07:57.102Z,39.05
2022-08-21T05:10:33.577Z,40.35
2022-08-21T05:13:01.657Z,42.33
2022-08-21T05:15:40.456Z,40.08
2022-08-21T05:18:24.063Z,38.03
2022-08-21T05:21:10.111Z,39.42
2022-08-21T05:23:48.021Z,42.38
2022-08-21T05:26:26.195Z,36.63
2022-08-21T05:29:02.133Z,35.40
2022-08-21T05:31:35.581Z,36.65
2022-08-21T05:34:10.620Z,33.53
2022-08-21T05:37:07.373Z,31.60
2022-08-21T05:40:04.546Z,29.88
2022-08-21T05:42:55.505Z,28.20
2022-08-21T05:45:43.491Z,26.60
2022-08-21T05:48:28.881Z,28.38
2022-08-21T05:51:10.802Z,26.90
2022-08-21T05:53:54.186Z,26.08
2022-08-21T05:56:32.554Z,26.38
2022-08-21T05:59:12.912Z,23.45
2022-08-21T06:01:54.622Z,22.35
2022-08-21T06:04:45.409Z,22.67
2022-08-21T06:07:26.339Z,21.55
2022-08-21T06:10:09.681Z,23.83
2022-08-21T06:12:53.677Z,21.88
2022-08-21T06:15:28.729Z,26.30
2022-08-21T06:18:11.509Z,28.02
2022-08-21T06:20:49.560Z,28.20
2022-08-21T06:23:33.146Z,24.27
2022-08-21T06:26:17.580Z,24.92
2022-08-21T06:28:51.566Z,27.95
2022-08-21T06:31:29.587Z,27.38
2022-08-21T06:34:08.327Z,26.48
2022-08-21T06:36:40.539Z,24.88
2022-08-21T06:39:24.686Z,23.63
2022-08-21T06:42:10.215Z,19.17
2022-08-21T06:44:53.547Z,19.27
2022-08-21T06:47:34.579Z,22.55
2022-08-21T06:50:10.250Z,18.17
2022-08-21T06:53:04.956Z,19.23
2022-08-21T06:55:40.594Z,16.23
2022-08-21T06:58:16.506Z,16.80
2022-08-21T07:01:02.912Z,17.55
2022-08-21T07:03:46.578Z,16.13
2022-08-21T07:06:21.710Z,18.05
2022-08-21T07:09:05.821Z,20.02
2022-08-21T07:11:47.733Z,15.27
2022-08-21T07:14:28.841Z,20.40
2022-08-21T07:17:08.111Z,16.00
2022-08-21T07:19:48.346Z,18.83
2022-08-21T07:22:25.514Z,19.30
2022-08-21T07:25:02.521Z,18.90
2022-08-21T07:27:45.656Z,21.20
2022-08-21T07:30:22.491Z,16.77
2022-08-21T07:33:03.036Z,17.67
2022-08-21T07:35:37.832Z,17.73
2022-08-21T07:38:18.608Z,16.83
2022-08-21T07:41:02.915Z,15.23
2022-08-21T07:43:45.917Z,15.45
2022-08-21T07:46:32.767Z,16.33
2022-08-21T07:49:09.916Z,16.45
2022-08-21T07:51:47.847Z,14.30
2022-08-21T07:54:33.301Z,20.50
2022-08-21T07:57:18.805Z,19.65
2022-08-21T07:59:59.910Z,16.83
2022-08-21T08:02:55.643Z,13.80
2022-08-21T08:05:33.814Z,16.25
2022-08-21T08:08:11.335Z,14.52
2022-08-21T08:10:47.809Z,12.93
2022-08-21T08:13:34.584Z,16.80
2022-08-21T08:18:44.644Z,16.50
2022-08-21T08:21:21.117Z,20.13
2022-08-21T08:23:54.004Z,13.70
2022-08-21T08:26:38.548Z,12.98
2022-08-21T08:29:22.549Z,11.00
2022-08-21T08:32:00.566Z,10.20
2022-08-21T08:34:41.343Z,11.80
2022-08-21T08:37:25.447Z,12.23
2022-08-21T08:40:12.677Z,11.20
2022-08-21T08:42:51.677Z,12.25
2022-08-21T08:45:27.201Z,13.20
2022-08-21T08:48:14.412Z,14.13
2022-08-21T08:51:15.408Z,13.18
2022-08-21T08:54:00.716Z,10.93
2022-08-21T08:56:42.393Z,12.43
2022-08-21T08:59:45.757Z,12.93
2022-08-21T09:02:24.129Z,11.00
2022-08-21T09:05:01.111Z,15.18
2022-08-21T09:07:48.243Z,10.98
2022-08-21T09:10:38.492Z,13.77
2022-08-21T09:13:38.493Z,13.40
2022-08-21T09:17:07.310Z,10.93
2022-08-21T09:20:06.294Z,11.80
2022-08-21T09:22:54.061Z,10.53
2022-08-21T09:25:36.907Z,15.55
2022-08-21T09:28:17.523Z,9.25
2022-08-21T09:31:03.548Z,10.95
2022-08-21T09:33:44.840Z,11.02
2022-08-21T09:36:39.349Z,11.55
2022-08-21T09:39:24.366Z,10.45
2022-08-21T09:42:07.762Z,13.70
2022-08-21T09:44:44.971Z,11.82
2022-08-21T09:47:33.145Z,13.73
2022-08-21T09:50:27.834Z,12.80
2022-08-21T09:53:14.726Z,13.60
2022-08-21T09:56:35.649Z,14.70
2022-08-21T09:59:25.670Z,14.30
2022-08-21T10:02:04.631Z,12.57
2022-08-21T10:04:47.007Z,11.75
2022-08-21T10:07:26.363Z,14.25
2022-08-21T10:10:35.442Z,18.42
2022-08-21T10:13:35.748Z,11.30
2022-08-21T10:16:46.395Z,10.57
2022-08-21T10:19:41.999Z,13.10
2022-08-21T10:22:31.040Z,13.63
2022-08-21T10:25:15.184Z,14.85
2022-08-21T10:28:13.731Z,13.30
2022-08-21T10:31:12.695Z,17.20
2022-08-21T10:33:59.944Z,14.65
2022-08-21T10:37:12.573Z,14.35
2022-08-21T10:40:00.978Z,15.15
2022-08-21T10:42:52.698Z,12.65
2022-08-21T10:45:54.239Z,13.00
2022-08-21T10:51:36.846Z,12.45
2022-08-21T10:54:35.571Z,15.70
2022-08-21T10:57:32.384Z,12.95
2022-08-21T11:00:16.767Z,13.10
2022-08-21T11:02:58.410Z,15.32
2022-08-21T11:05:50.117Z,11.95
2022-08-21T11:09:00.639Z,11.75
2022-08-21T11:11:53.885Z,12.00
2022-08-21T11:14:50.766Z,15.85
2022-08-21T11:17:33.932Z,17.23
2022-08-21T11:20:32.025Z,11.38
2022-08-21T11:23:20.361Z,12.15
2022-08-21T11:26:01.958Z,13.00
2022-08-21T11:28:55.906Z,13.75
2022-08-21T11:31:42.322Z,10.30
2022-08-21T11:34:39.699Z,13.35
2022-08-21T11:37:35.339Z,13.70
2022-08-21T11:40:25.652Z,11.98
2022-08-21T11:43:23.920Z,14.07
2022-08-21T11:46:08.191Z,11.02
2022-08-21T11:49:03.185Z,11.00
2022-08-21T11:51:53.429Z,11.77
2022-08-21T11:54:37.269Z,14.25
2022-08-21T11:57:17.020Z,12.57
2022-08-21T12:00:13.887Z,12.02
2022-08-21T12:02:58.695Z,10.63
2022-08-21T12:05:49.438Z,12.40
2022-08-21T12:08:44.174Z,9.52
2022-08-21T12:11:30.589Z,11.13
2022-08-21T12:14:21.879Z,12.30
2022-08-21T12:17:05.134Z,13.52
2022-08-21T12:19:44.763Z,11.32
2022-08-21T12:22:23.573Z,10.00
2022-08-21T12:25:21.021Z,13.77
2022-08-21T12:28:10.265Z,8.80
2022-08-21T12:30:54.904Z,12.00
2022-08-21T12:33:43.232Z,13.07
2022-08-21T12:36:22.349Z,12.65
2022-08-21T12:39:06.144Z,15.05
2022-08-21T12:44:42.849Z,9.50
2022-08-21T12:47:34.323Z,14.32
2022-08-21T12:50:17.350Z,10.07
2022-08-21T12:53:25.152Z,11.20
2022-08-21T12:56:10.071Z,10.40
2022-08-21T12:59:01.697Z,9.38
2022-08-21T13:01:42.152Z,10.45
2022-08-21T13:04:21.394Z,10.55
2022-08-21T13:07:06.425Z,11.35
2022-08-21T13:10:00.192Z,12.80
2022-08-21T13:12:36.569Z,12.50
2022-08-21T13:15:15.176Z,10.30
2022-08-21T13:18:11.081Z,11.00
2022-08-21T13:20:58.121Z,9.48
2022-08-21T13:23:36.721Z,8.45
2022-08-21T13:26:21.831Z,8.88
2022-08-21T13:29:13.944Z,10.32
2022-08-21T13:32:05.387Z,10.70
2022-08-21T13:34:53.924Z,11.43
2022-08-21T13:37:33.558Z,12.02
2022-08-21T13:40:14.088Z,9.45
2022-08-21T13:42:49.049Z,10.68
2022-08-21T13:45:42.835Z,9.80
2022-08-21T13:48:21.194Z,10.82
2022-08-21T13:50:53.792Z,8.10
2022-08-21T13:53:37.473Z,10.52
2022-08-21T13:56:45.555Z,8.95
2022-08-21T13:59:39.059Z,7.65
2022-08-21T14:02:23.535Z,9.70
2022-08-21T14:05:12.195Z,7.30
2022-08-21T14:07:49.104Z,12.77
2022-08-21T14:10:31.434Z,9.25
2022-08-21T14:13:22.379Z,8.80
2022-08-21T14:16:04.593Z,9.80
2022-08-21T14:18:47.026Z,8.13
2022-08-21T14:21:35.399Z,12.05
2022-08-21T14:24:15.438Z,9.50
2022-08-21T14:27:05.077Z,7.68
2022-08-21T14:29:48.546Z,9.57
2022-08-21T14:32:34.100Z,12.88
2022-08-21T14:35:11.971Z,6.38
2022-08-21T14:37:53.394Z,10.55
2022-08-21T14:40:46.763Z,5.60
2022-08-21T14:43:21.599Z,6.82
2022-08-21T14:45:57.144Z,6.55
2022-08-21T14:48:30.739Z,6.20
2022-08-21T14:51:05.908Z,5.72
2022-08-21T14:53:46.361Z,4.55
2022-08-21T14:56:24.902Z,4.25
2022-08-21T14:59:06.578Z,5.70
2022-08-21T15:01:45.067Z,4.95
2022-08-21T15:04:29.481Z,3.83
2022-08-21T15:07:05.623Z,4.72
2022-08-21T15:09:49.694Z,4.05
2022-08-21T15:12:24.541Z,4.45
2022-08-21T15:15:05.193Z,4.00
2022-08-21T15:17:47.706Z,5.78
2022-08-21T15:20:26.589Z,4.57
2022-08-21T15:23:01.520Z,6.65
2022-08-21T15:25:42.948Z,8.90
2022-08-21T15:28:20.800Z,11.43
2022-08-21T15:30:50.882Z,12.55
2022-08-21T15:33:29.739Z,10.70
2022-08-21T15:36:13.482Z,18.67
2022-08-21T15:39:00.338Z,17.55
2022-08-21T15:41:38.600Z,8.98
2022-08-21T15:44:17.714Z,17.63
2022-08-21T15:46:56.020Z,11.75
2022-08-21T15:49:28.359Z,12.57
2022-08-21T15:51:56.756Z,11.38
2022-08-21T15:54:27.589Z,11.23
2022-08-21T15:56:58.734Z,13.00
2022-08-21T15:59:30.154Z,17.85
2022-08-21T16:02:09.888Z,11.85
2022-08-21T16:04:40.517Z,11.77
2022-08-21T16:07:09.649Z,13.20
2022-08-21T16:09:43.611Z,12.30
2022-08-21T16:12:24.119Z,14.27
2022-08-21T16:15:04.258Z,13.48
2022-08-21T16:17:38.049Z,10.93
2022-08-21T16:20:13.017Z,12.82
2022-08-21T16:22:49.940Z,12.60
2022-08-21T16:25:25.422Z,14.95
2022-08-21T16:28:02.596Z,13.63
2022-08-21T16:30:30.986Z,15.20
2022-08-21T16:33:00.046Z,12.98
2022-08-21T16:35:27.021Z,14.35
2022-08-21T16:37:59.651Z,13.60
2022-08-21T16:40:27.791Z,13.57
2022-08-21T16:43:03.943Z,12.60
2022-08-21T16:45:45.206Z,15.35
2022-08-21T16:48:27.256Z,16.80
2022-08-21T16:51:12.745Z,18.45
2022-08-21T16:54:00.024Z,22.23
2022-08-21T16:56:39.717Z,18.67
2022-08-21T16:59:28.999Z,17.88
2022-08-21T17:02:06.486Z,15.20
2022-08-21T17:04:53.038Z,15.80
2022-08-21T17:07:37.140Z,17.70
2022-08-21T17:10:23.210Z,17.75
2022-08-21T17:13:07.709Z,16.13
2022-08-21T17:15:51.253Z,15.70
2022-08-21T17:21:18.452Z,15.13
2022-08-21T17:23:59.518Z,16.45
2022-08-21T17:26:34.360Z,14.15
2022-08-21T17:29:18.293Z,15.73
2022-08-21T17:32:07.025Z,15.80
2022-08-21T17:34:47.884Z,16.02
2022-08-21T17:37:18.015Z,14.75
2022-08-21T17:40:03.051Z,14.77
2022-08-21T17:42:54.239Z,14.85
2022-08-21T17:45:25.682Z,14.57
2022-08-21T17:48:11.459Z,12.93
2022-08-21T17:50:56.264Z,13.35
2022-08-21T17:53:31.772Z,14.75
2022-08-21T17:56:12.935Z,15.98
2022-08-21T17:58:58.617Z,16.15
2022-08-21T18:01:43.936Z,16.80
2022-08-21T18:04:28.753Z,17.98
2022-08-21T18:07:07.598Z,16.75
2022-08-21T18:09:42.421Z,17.65
2022-08-21T18:12:23.210Z,18.00
2022-08-21T18:15:05.110Z,17.30
2022-08-21T18:17:45.429Z,17.60
2022-08-21T18:20:26.827Z,15.10
2022-08-21T18:23:06.781Z,15.80
2022-08-21T18:25:48.185Z,17.17
2022-08-21T18:28:31.656Z,18.95
2022-08-21T18:31:18.904Z,16.45
2022-08-21T18:33:57.884Z,16.05
2022-08-21T18:36:35.716Z,16.58
2022-08-21T18:39:34.954Z,24.25
2022-08-21T18:42:18.299Z,20.25
2022-08-21T18:44:58.610Z,19.73
2022-08-21T18:47:39.832Z,20.20
2022-08-21T18:50:20.707Z,21.35
2022-08-21T18:53:01.113Z,20.70
2022-08-21T18:55:45.057Z,22.23
2022-08-21T18:58:28.860Z,19.58
2022-08-21T19:01:15.072Z,19.00
2022-08-21T19:03:58.496Z,16.45
2022-08-21T19:06:33.592Z,20.70
2022-08-21T19:09:17.180Z,21.80
2022-08-21T19:11:57.870Z,22.02
2022-08-21T19:14:41.305Z,19.67
2022-08-21T19:17:25.404Z,18.17
2022-08-21T19:20:14.792Z,19.65
2022-08-21T19:23:09.471Z,18.85
2022-08-21T19:25:58.565Z,19.75
2022-08-21T19:29:02.083Z,18.85
